Time;durP1;ratioP1;P1;durP2;ratioP2;P2;SDS_P1;SDS_P2;PMS_P1;PMS_P2;Temp;Humidity;BMP_temperature;BMP_pressure;BME280_temperature;BME280_humidity;BME280_pressure;Samples;Min_cycle;Max_cycle;Signal;HPM_P1;HPM_P2
2021/04/30 00:01:36;;;;;;;69.13;38.42;;;;;;;6.31;100.00;100966.19;5088719;22;20505;-90
2021/04/30 00:04:04;;;;;;;86.57;39.65;;;;;;;6.36;100.00;100966.50;5076710;28;20060;-90
2021/04/30 00:06:31;;;;;;;80.88;42.55;;;;;;;6.22;100.00;100967.22;5076351;28;20059;-92
2021/04/30 00:08:58;;;;;;;72.88;42.00;;;;;;;6.18;100.00;100977.28;5076541;28;20071;-92
2021/04/30 00:11:24;;;;;;;76.03;40.95;;;;;;;6.17;100.00;100981.75;5085020;28;20115;-91
2021/04/30 00:13:50;;;;;;;66.95;38.38;;;;;;;6.23;100.00;100992.59;5096633;28;20125;-91
2021/04/30 00:16:17;;;;;;;75.32;40.95;;;;;;;6.42;100.00;101003.56;5096112;28;20050;-91
2021/04/30 00:18:43;;;;;;;71.22;39.58;;;;;;;6.48;100.00;101003.88;5096298;28;20040;-91
2021/04/30 00:21:11;;;;;;;69.22;40.70;;;;;;;6.52;100.00;100986.72;5095947;28;20048;-92
2021/04/30 00:23:37;;;;;;;80.90;39.97;;;;;;;6.55;100.00;101000.38;5096154;28;20055;-91
2021/04/30 00:26:07;;;;;;;79.10;41.58;;;;;;;6.63;100.00;101002.97;5096688;28;20071;-91
2021/04/30 00:28:34;;;;;;;82.88;42.25;;;;;;;6.60;100.00;100989.31;5096187;28;20487;-91
2021/04/30 00:31:01;;;;;;;84.32;44.30;;;;;;;6.46;100.00;100971.56;5096394;28;20588;-91
2021/04/30 00:33:29;;;;;;;86.88;45.45;;;;;;;6.48;100.00;100972.22;5096531;28;20092;-91
2021/04/30 00:35:56;;;;;;;95.30;46.65;;;;;;;6.04;100.00;100984.09;5096093;28;20519;-90
2021/04/30 00:38:23;;;;;;;129.85;46.83;;;;;;;6.17;100.00;100991.47;5096711;28;20055;-91
2021/04/30 00:40:50;;;;;;;123.30;46.83;;;;;;;6.19;100.00;101000.84;5096274;28;20054;-91
2021/04/30 00:43:17;;;;;;;100.28;45.15;;;;;;;6.21;100.00;101003.34;5096140;28;20048;-91
2021/04/30 00:45:44;;;;;;;108.13;45.65;;;;;;;6.30;100.00;101006.75;5095869;28;20059;-90
2021/04/30 00:48:11;;;;;;;105.30;47.42;;;;;;;6.24;100.00;101002.16;5096176;28;20048;-91
2021/04/30 00:50:38;;;;;;;87.03;46.85;;;;;;;6.24;100.00;100997.72;5095431;28;20048;-91
2021/04/30 00:53:04;;;;;;;85.53;42.60;;;;;;;6.02;100.00;101001.91;5095894;28;20428;-91
2021/04/30 00:55:32;;;;;;;73.03;40.60;;;;;;;6.07;100.00;101004.03;5095510;28;20062;-91
2021/04/30 00:58:00;;;;;;;81.03;41.50;;;;;;;6.14;100.00;100991.78;5095735;28;20086;-91
2021/04/30 01:00:28;;;;;;;77.22;40.28;;;;;;;5.87;100.00;100985.94;5095779;28;20104;-91
2021/04/30 01:02:55;;;;;;;74.55;40.08;;;;;;;5.86;100.00;101002.72;5096068;28;20044;-91
2021/04/30 01:05:23;;;;;;;78.47;42.17;;;;;;;6.01;100.00;101005.53;5095667;28;20493;-91
2021/04/30 01:07:50;;;;;;;82.85;42.17;;;;;;;6.04;100.00;100999.91;5095657;28;20052;-91
2021/04/30 01:10:17;;;;;;;87.22;44.88;;;;;;;6.07;100.00;100996.94;5095710;28;20059;-92
2021/04/30 01:12:44;;;;;;;99.63;45.95;;;;;;;5.80;100.00;101000.75;5095299;28;20058;-90
2021/04/30 01:15:13;;;;;;;93.82;45.85;;;;;;;5.80;100.00;100999.94;5095490;28;20059;-91
2021/04/30 01:17:39;;;;;;;88.53;44.10;;;;;;;6.04;100.00;100996.44;5095744;28;20044;-91
2021/04/30 01:20:08;;;;;;;87.03;44.30;;;;;;;6.10;100.00;100993.13;5095097;28;20056;-91
2021/04/30 01:22:37;;;;;;;79.60;41.15;;;;;;;6.08;100.00;100980.13;5096045;28;20048;-91
2021/04/30 01:25:06;;;;;;;79.03;42.35;;;;;;;6.06;100.00;100960.19;5095923;28;20048;-91
2021/04/30 01:27:32;;;;;;;80.38;43.28;;;;;;;6.04;100.00;100963.00;5095663;28;20523;-91
2021/04/30 01:29:59;;;;;;;90.00;46.95;;;;;;;5.93;100.00;100963.34;5095633;28;20474;-91
2021/04/30 01:32:25;;;;;;;89.47;45.80;;;;;;;5.85;100.00;100968.63;5096940;28;20051;-91
2021/04/30 01:34:52;;;;;;;81.30;45.97;;;;;;;5.78;100.00;100992.22;5100505;28;20048;-91
2021/04/30 01:37:19;;;;;;;80.40;43.97;;;;;;;5.80;100.00;100992.03;5099810;28;20055;-91
2021/04/30 01:39:46;;;;;;;82.25;44.38;;;;;;;5.94;100.00;100989.56;5099234;28;20101;-90
2021/04/30 01:42:13;;;;;;;63.53;39.05;;;;;;;5.87;100.00;100988.56;5099606;28;20044;-91
2021/04/30 01:44:39;;;;;;;68.05;41.05;;;;;;;5.95;100.00;100982.47;5099129;28;20447;-90
2021/04/30 01:47:05;;;;;;;58.25;37.05;;;;;;;5.96;100.00;100973.56;5099038;28;20048;-91
2021/04/30 01:49:31;;;;;;;57.33;35.58;;;;;;;5.89;100.00;100976.03;5099232;28;20425;-91
2021/04/30 01:51:58;;;;;;;58.80;35.53;;;;;;;5.92;100.00;100972.22;5099270;28;20045;-90
2021/04/30 01:54:24;;;;;;;56.67;35.85;;;;;;;5.87;100.00;100975.38;5099369;28;20059;-91
2021/04/30 01:56:52;;;;;;;55.45;35.40;;;;;;;5.81;100.00;100970.78;5099449;28;20060;-90
2021/04/30 01:59:18;;;;;;;61.83;38.42;;;;;;;5.94;100.00;100960.56;5098877;28;20066;-91
2021/04/30 02:01:45;;;;;;;56.63;37.30;;;;;;;5.94;100.00;100963.19;5092934;28;20060;-91
2021/04/30 02:04:11;;;;;;;62.92;37.42;;;;;;;5.78;100.00;100979.03;5098551;28;20048;-91
2021/04/30 02:06:39;;;;;;;61.70;37.05;;;;;;;6.03;100.00;100985.09;5098945;28;20398;-91
2021/04/30 02:09:07;;;;;;;61.78;37.97;;;;;;;6.07;100.00;100978.47;5098795;28;20060;-91
2021/04/30 02:11:34;;;;;;;71.68;41.67;;;;;;;6.26;100.00;100971.16;5122057;22;20050;-79
2021/04/30 02:14:02;;;;;;;79.00;46.90;;;;;;;6.23;100.00;100963.56;5116923;28;20105;-79
2021/04/30 02:16:29;;;;;;;80.03;45.60;;;;;;;6.10;100.00;100967.59;5117136;28;20491;-79
2021/04/30 02:18:56;;;;;;;75.50;41.92;;;;;;;6.09;100.00;100981.78;5116721;28;20043;-78
2021/04/30 02:21:22;;;;;;;69.20;40.17;;;;;;;5.96;100.00;100989.38;5116706;28;20051;-79
2021/04/30 02:23:48;;;;;;;87.82;42.22;;;;;;;6.18;100.00;100982.56;5117303;28;20051;-78
2021/04/30 02:26:16;;;;;;;82.63;43.45;;;;;;;6.07;100.00;100980.28;5116761;28;20048;-79
2021/04/30 02:28:45;;;;;;;90.07;43.28;;;;;;;6.16;100.00;100985.38;5117002;28;20075;-79
2021/04/30 02:31:14;;;;;;;81.32;43.53;;;;;;;6.24;100.00;100987.16;5117325;28;20391;-79
2021/04/30 02:33:41;;;;;;;85.20;44.35;;;;;;;6.15;100.00;100990.81;5116871;28;20040;-79
2021/04/30 02:36:09;;;;;;;85.20;42.40;;;;;;;6.00;100.00;101009.16;5116506;28;20468;-79
2021/04/30 02:38:35;;;;;;;92.72;42.78;;;;;;;6.13;100.00;101008.63;5116768;28;20048;-79
2021/04/30 02:41:02;;;;;;;95.68;43.67;;;;;;;6.15;100.00;101017.19;5116552;28;20059;-80
2021/04/30 02:43:29;;;;;;;100.45;44.63;;;;;;;6.30;100.00;101010.22;5116479;28;20090;-79
2021/04/30 02:45:57;;;;;;;109.55;44.72;;;;;;;6.02;100.00;101007.19;5116201;28;20085;-79
2021/04/30 02:48:29;;;;;;;99.43;44.35;;;;;;;6.21;100.00;101020.97;5116531;28;20047;-79
2021/04/30 02:50:56;;;;;;;123.78;46.40;;;;;;;6.11;100.00;101016.72;5116600;28;20048;-79
2021/04/30 02:53:23;;;;;;;106.32;47.17;;;;;;;6.14;100.00;101031.34;5116364;28;20048;-78
2021/04/30 02:55:50;;;;;;;96.85;48.58;;;;;;;6.23;100.00;101022.44;5116364;28;20047;-78
2021/04/30 02:58:16;;;;;;;110.32;48.42;;;;;;;6.19;100.00;101019.31;5116316;28;20040;-78
2021/04/30 03:00:42;;;;;;;101.60;48.28;;;;;;;6.24;100.00;101039.91;5116030;28;20051;-79
2021/04/30 03:03:08;;;;;;;101.45;46.75;;;;;;;6.34;100.00;101037.91;5116170;28;20051;-78
2021/04/30 03:05:36;;;;;;;90.35;45.28;;;;;;;6.52;100.00;101032.38;5115902;28;20051;-79
2021/04/30 03:08:03;;;;;;;85.10;45.05;;;;;;;6.37;100.00;101045.47;5116248;28;20043;-79
2021/04/30 03:10:30;;;;;;;89.22;46.20;;;;;;;6.53;100.00;101051.69;5115525;28;20536;-79
2021/04/30 03:12:56;;;;;;;76.20;42.42;;;;;;;6.62;100.00;101055.94;5115791;28;20121;-80
2021/04/30 03:15:22;;;;;;;85.38;44.80;;;;;;;6.50;100.00;101071.31;5116066;28;20058;-78
2021/04/30 03:17:49;;;;;;;88.47;47.03;;;;;;;6.63;100.00;101060.25;5115613;28;20544;-78
2021/04/30 03:20:16;;;;;;;79.53;44.45;;;;;;;6.51;100.00;101064.25;5115625;28;20101;-78
2021/04/30 03:22:45;;;;;;;83.93;43.42;;;;;;;6.60;100.00;101044.75;5115973;28;20514;-78
2021/04/30 03:25:13;;;;;;;83.03;48.40;;;;;;;6.75;100.00;101050.94;5116060;28;20409;-78
2021/04/30 03:27:39;;;;;;;90.38;50.13;;;;;;;6.88;100.00;101051.19;5115733;28;20376;-78
2021/04/30 03:30:07;;;;;;;97.75;51.08;;;;;;;6.82;100.00;101059.81;5115699;28;20044;-78
2021/04/30 03:32:35;;;;;;;90.03;50.78;;;;;;;6.48;100.00;101068.03;5115205;28;20422;-78
2021/04/30 03:35:02;;;;;;;91.35;48.17;;;;;;;6.68;100.00;101072.91;5115707;28;20060;-78
2021/04/30 03:37:28;;;;;;;94.90;49.90;;;;;;;6.78;100.00;101077.00;5115197;28;20483;-78
2021/04/30 03:39:55;;;;;;;76.18;45.38;;;;;;;6.83;100.00;101060.63;5115464;28;20051;-78
2021/04/30 03:42:21;;;;;;;62.78;39.65;;;;;;;6.80;100.00;101061.78;5115520;28;20047;-78
2021/04/30 03:44:48;;;;;;;58.70;37.55;;;;;;;6.92;100.00;101069.31;5115186;28;20052;-79
2021/04/30 03:47:14;;;;;;;59.63;38.20;;;;;;;6.86;100.00;101082.22;5115454;28;20113;-78
2021/04/30 03:49:40;;;;;;;54.10;36.30;;;;;;;6.72;100.00;101090.03;5115688;28;20051;-78
2021/04/30 03:52:07;;;;;;;54.58;34.72;;;;;;;6.73;100.00;101092.50;5115326;28;20044;-78
2021/04/30 03:54:33;;;;;;;57.88;36.20;;;;;;;6.87;100.00;101081.25;5115243;28;20116;-78
2021/04/30 03:57:01;;;;;;;55.20;36.75;;;;;;;7.01;100.00;101076.22;5114219;28;20051;-78
2021/04/30 03:59:28;;;;;;;53.28;36.70;;;;;;;7.05;100.00;101081.00;5115084;28;20051;-78
2021/04/30 04:01:54;;;;;;;57.13;37.28;;;;;;;7.09;100.00;101079.63;5115183;28;20051;-78
2021/04/30 04:04:20;;;;;;;58.92;37.08;;;;;;;7.29;100.00;101082.66;5114881;28;20048;-78
2021/04/30 04:06:47;;;;;;;51.10;35.22;;;;;;;7.39;100.00;101081.59;5115058;28;20059;-78
2021/04/30 04:09:13;;;;;;;52.30;35.33;;;;;;;7.19;100.00;101092.59;5115318;28;20043;-78
2021/04/30 04:11:40;;;;;;;53.22;35.35;;;;;;;7.44;100.00;101095.09;5114735;28;20047;-78
2021/04/30 04:14:07;;;;;;;49.35;34.35;;;;;;;7.55;100.00;101095.50;5114681;28;20544;-78
2021/04/30 04:16:34;;;;;;;58.35;39.17;;;;;;;7.60;100.00;101102.91;5114496;28;20124;-77
2021/04/30 04:19:01;;;;;;;56.08;38.38;;;;;;;7.69;100.00;101099.22;5114825;28;20047;-78
2021/04/30 04:21:27;;;;;;;50.05;33.95;;;;;;;7.62;100.00;101097.44;5114746;28;20062;-77
2021/04/30 04:23:53;;;;;;;56.13;34.95;;;;;;;7.52;100.00;101105.63;5114511;28;20111;-78
2021/04/30 04:26:19;;;;;;;62.15;37.25;;;;;;;7.63;100.00;101104.41;5114408;28;20043;-78
2021/04/30 04:28:46;;;;;;;62.22;36.53;;;;;;;7.92;100.00;101106.28;5114304;28;20459;-79
2021/04/30 04:31:13;;;;;;;55.13;36.30;;;;;;;7.87;100.00;101112.13;5114394;28;20105;-77
2021/04/30 04:33:39;;;;;;;57.15;35.55;;;;;;;7.78;100.00;101119.31;5114247;28;20048;-78
2021/04/30 04:36:05;;;;;;;59.60;38.42;;;;;;;8.04;100.00;101126.84;5114551;28;20061;-78
2021/04/30 04:38:32;;;;;;;57.08;37.85;;;;;;;8.02;100.00;101123.56;5114403;28;20058;-78
2021/04/30 04:40:58;;;;;;;57.40;34.88;;;;;;;8.05;100.00;101130.31;5114385;28;20044;-78
2021/04/30 04:43:24;;;;;;;66.75;40.08;;;;;;;8.41;100.00;101119.06;5114649;28;20062;-78
2021/04/30 04:45:51;;;;;;;60.75;38.13;;;;;;;8.43;100.00;101138.25;5114166;28;20054;-77
2021/04/30 04:48:18;;;;;;;64.47;39.25;;;;;;;8.57;100.00;101131.31;5114250;28;20071;-77
2021/04/30 04:50:45;;;;;;;58.35;38.13;;;;;;;8.69;100.00;101132.50;5114019;28;20468;-77
2021/04/30 04:53:11;;;;;;;59.20;38.72;;;;;;;8.73;100.00;101136.44;5114012;28;20067;-77
2021/04/30 04:55:37;;;;;;;58.08;38.17;;;;;;;8.67;100.00;101143.28;5114303;28;20043;-78
2021/04/30 04:58:03;;;;;;;54.17;34.80;;;;;;;8.71;100.00;101139.28;5114124;28;20050;-77
2021/04/30 05:00:32;;;;;;;57.45;34.72;;;;;;;8.66;100.00;101146.94;5113775;28;20043;-77
2021/04/30 05:02:58;;;;;;;53.55;35.22;;;;;;;8.90;100.00;101137.06;5114437;28;20067;-77
2021/04/30 05:05:26;;;;;;;48.78;34.75;;;;;;;9.02;100.00;101138.25;5114135;28;20059;-77
2021/04/30 05:07:52;;;;;;;59.25;37.63;;;;;;;8.90;100.00;101139.72;5113465;28;20105;-78
2021/04/30 05:10:19;;;;;;;52.17;34.30;;;;;;;8.93;100.00;101158.72;5113809;28;20047;-77
2021/04/30 05:12:45;;;;;;;53.92;36.92;;;;;;;9.08;100.00;101152.56;5113940;28;20062;-78
2021/04/30 05:15:13;;;;;;;52.55;36.63;;;;;;;9.09;100.00;101168.28;5113763;28;20101;-77
2021/04/30 05:17:39;;;;;;;54.80;36.10;;;;;;;8.98;100.00;101175.88;5113644;28;20136;-78
2021/04/30 05:20:07;;;;;;;52.58;36.75;;;;;;;9.24;100.00;101175.38;5113969;28;20062;-77
2021/04/30 05:22:35;;;;;;;54.20;35.95;;;;;;;9.19;100.00;101178.59;5114036;28;20044;-77
2021/04/30 05:25:01;;;;;;;52.33;36.85;;;;;;;9.34;100.00;101175.91;5113760;28;20044;-77
2021/04/30 05:27:28;;;;;;;56.30;37.97;;;;;;;9.40;100.00;101170.66;5113659;28;20044;-77
2021/04/30 05:29:54;;;;;;;63.50;40.15;;;;;;;9.52;100.00;101175.50;5113750;28;20047;-77
2021/04/30 05:32:20;;;;;;;56.90;37.33;;;;;;;9.47;100.00;101169.94;5113842;28;20112;-78
2021/04/30 05:34:47;;;;;;;55.78;37.15;;;;;;;9.58;100.00;101178.22;5113674;28;20044;-78
2021/04/30 05:37:13;;;;;;;56.92;37.33;;;;;;;9.50;100.00;101180.16;5113376;28;20490;-77
2021/04/30 05:39:40;;;;;;;57.78;39.67;;;;;;;9.70;100.00;101172.41;5113949;28;20048;-78
2021/04/30 05:42:08;;;;;;;55.63;37.78;;;;;;;9.74;100.00;101179.81;5113556;28;20059;-78
2021/04/30 05:44:34;;;;;;;54.47;38.15;;;;;;;9.98;100.00;101181.25;5113691;28;20048;-78
2021/04/30 05:47:00;;;;;;;50.65;35.97;;;;;;;10.14;100.00;101188.16;5113489;28;20043;-78
2021/04/30 05:49:27;;;;;;;63.30;40.05;;;;;;;10.06;100.00;101185.63;5113507;28;20506;-78
2021/04/30 05:51:53;;;;;;;57.35;40.10;;;;;;;10.13;100.00;101190.97;5113728;28;20134;-78
2021/04/30 05:54:19;;;;;;;64.03;45.85;;;;;;;10.28;100.00;101189.09;5113438;28;20039;-78
2021/04/30 05:56:46;;;;;;;69.07;48.10;;;;;;;10.48;100.00;101186.59;5113725;28;20048;-78
2021/04/30 05:59:13;;;;;;;53.33;39.75;;;;;;;10.61;100.00;101186.66;5113929;28;20055;-77
2021/04/30 06:01:39;;;;;;;56.50;39.85;;;;;;;10.73;100.00;101197.59;5113190;28;20062;-78
2021/04/30 06:04:06;;;;;;;55.90;38.03;;;;;;;10.71;100.00;101187.16;5113434;28;20044;-77
2021/04/30 06:06:32;;;;;;;56.72;38.53;;;;;;;10.89;100.00;101191.97;5113315;28;20048;-78
2021/04/30 06:08:58;;;;;;;54.03;36.75;;;;;;;10.95;100.00;101187.69;5113633;28;20074;-78
2021/04/30 06:11:24;;;;;;;50.97;36.30;;;;;;;11.08;100.00;101178.97;5113181;28;20059;-78
2021/04/30 06:13:51;;;;;;;43.53;33.97;;;;;;;11.14;100.00;101191.47;5113208;28;20048;-78
2021/04/30 06:16:18;;;;;;;47.55;33.55;;;;;;;11.13;100.00;101197.78;5113628;28;20093;-78
2021/04/30 06:18:44;;;;;;;43.28;34.25;;;;;;;11.15;100.00;101193.09;5113100;28;20044;-77
2021/04/30 06:21:11;;;;;;;51.50;36.42;;;;;;;11.03;100.00;101190.19;5116703;28;20112;-78
2021/04/30 06:23:38;;;;;;;53.50;35.40;;;;;;;11.16;100.00;101203.53;5116863;28;20043;-78
2021/04/30 06:26:05;;;;;;;53.25;35.03;;;;;;;11.26;100.00;101207.69;5116755;28;20093;-78
2021/04/30 06:28:31;;;;;;;44.72;33.67;;;;;;;11.38;100.00;101209.56;5116906;28;20040;-78
2021/04/30 06:30:58;;;;;;;44.90;34.30;;;;;;;11.42;100.00;101212.66;5116606;28;20052;-78
2021/04/30 06:33:25;;;;;;;50.47;34.67;;;;;;;11.33;100.00;101212.00;5116819;28;20134;-78
2021/04/30 06:35:51;;;;;;;49.13;35.03;;;;;;;11.36;100.00;101211.59;5117113;28;20054;-77
2021/04/30 06:38:18;;;;;;;44.97;33.58;;;;;;;11.26;100.00;101208.50;5116780;28;20043;-78
2021/04/30 06:40:44;;;;;;;47.90;34.50;;;;;;;11.44;100.00;101208.78;5116780;28;20116;-78
2021/04/30 06:43:10;;;;;;;44.70;33.97;;;;;;;11.57;100.00;101209.84;5116782;28;20055;-78
2021/04/30 06:45:37;;;;;;;45.58;31.80;;;;;;;11.61;100.00;101205.75;5116325;28;20483;-77
2021/04/30 06:48:05;;;;;;;42.40;31.83;;;;;;;11.48;100.00;101201.22;5116606;28;20059;-78
2021/04/30 06:50:32;;;;;;;42.53;32.85;;;;;;;11.69;100.00;101195.75;5116204;28;20048;-77
2021/04/30 06:52:58;;;;;;;46.67;33.58;;;;;;;11.70;100.00;101210.66;5116395;28;20124;-78
2021/04/30 06:55:24;;;;;;;49.25;32.55;;;;;;;11.75;100.00;101211.94;5116580;28;20097;-78
2021/04/30 06:57:50;;;;;;;43.70;33.33;;;;;;;12.07;100.00;101199.69;5116226;28;20044;-78
2021/04/30 07:00:17;;;;;;;46.28;33.55;;;;;;;12.27;100.00;101208.53;5116424;28;20109;-77
2021/04/30 07:02:44;;;;;;;43.85;33.47;;;;;;;12.03;100.00;101209.94;5116359;28;20052;-78
2021/04/30 07:05:13;;;;;;;43.85;34.05;;;;;;;12.20;100.00;101222.88;5116409;28;20059;-77
2021/04/30 07:07:40;;;;;;;42.55;33.72;;;;;;;12.30;100.00;101213.44;5116170;28;20039;-77
2021/04/30 07:10:08;;;;;;;39.30;31.88;;;;;;;12.28;100.00;101210.16;5116222;28;20058;-77
2021/04/30 07:12:35;;;;;;;45.97;33.08;;;;;;;12.19;100.00;101198.06;5115822;28;20434;-78
2021/04/30 07:15:02;;;;;;;41.75;32.70;;;;;;;12.27;100.00;101216.50;5115778;28;20404;-78
2021/04/30 07:17:28;;;;;;;39.45;31.50;;;;;;;12.44;100.00;101206.28;5115829;28;20498;-78
2021/04/30 07:19:54;;;;;;;42.95;33.05;;;;;;;12.32;100.00;101208.75;5115627;28;20051;-78
2021/04/30 07:22:21;;;;;;;46.78;34.42;;;;;;;12.14;100.00;101208.53;5115627;28;20112;-77
2021/04/30 07:24:48;;;;;;;45.78;35.30;;;;;;;12.20;100.00;101205.06;5115737;28;20092;-78
2021/04/30 07:27:17;;;;;;;46.72;34.33;;;;;;;12.52;100.00;101211.38;5103198;28;20056;-81
2021/04/30 07:30:17;;;;;;;45.63;32.83;;;;;;;12.68;100.00;101207.47;5096341;28;20090;-88
2021/04/30 07:33:21;;;;;;;44.63;31.90;;;;;;;12.70;100.00;101205.41;5095958;28;20468;-87
2021/04/30 07:36:09;;;;;;;45.20;34.30;;;;;;;12.82;100.00;101198.41;5095827;28;20044;-87
2021/04/30 07:38:51;;;;;;;50.90;37.53;;;;;;;12.76;100.00;101193.91;5095872;28;20048;-82
2021/04/30 07:41:20;;;;;;;52.45;34.13;;;;;;;12.92;100.00;101191.81;5095554;28;20044;-79
2021/04/30 07:43:46;;;;;;;51.33;35.47;;;;;;;12.83;100.00;101199.25;5094370;28;20048;-79
2021/04/30 07:46:19;;;;;;;44.90;33.88;;;;;;;13.04;100.00;101206.13;5094203;28;20128;-77
2021/04/30 07:48:45;;;;;;;47.67;35.15;;;;;;;12.81;100.00;101201.28;5094770;28;20523;-80
2021/04/30 07:51:11;;;;;;;52.28;38.58;;;;;;;13.02;100.00;101206.38;5094972;28;20044;-80
2021/04/30 07:53:39;;;;;;;52.47;41.22;;;;;;;13.10;100.00;101199.16;5094900;28;20055;-80
2021/04/30 07:56:07;;;;;;;57.58;44.90;;;;;;;12.88;100.00;101196.75;5095036;28;20052;-79
2021/04/30 07:58:35;;;;;;;60.65;47.45;;;;;;;12.89;100.00;101201.09;5094577;28;20130;-79
2021/04/30 08:01:01;;;;;;;61.80;49.53;;;;;;;12.92;100.00;101205.16;5094397;28;20563;-79
2021/04/30 08:03:28;;;;;;;52.08;34.83;;;;;;;13.01;100.00;101203.88;5094766;28;20052;-77
2021/04/30 08:05:55;;;;;;;50.13;37.08;;;;;;;12.91;100.00;101206.19;5094656;28;20052;-79
2021/04/30 08:08:21;;;;;;;55.15;38.13;;;;;;;13.03;100.00;101215.19;5094535;28;20055;-79
2021/04/30 08:10:48;;;;;;;51.10;36.35;;;;;;;13.29;100.00;101201.78;5094313;28;20040;-78
2021/04/30 08:13:15;;;;;;;53.15;37.47;;;;;;;13.45;100.00;101180.97;5094436;28;20055;-78
2021/04/30 08:15:43;;;;;;;55.17;36.17;;;;;;;13.17;100.00;101186.63;5094318;28;20048;-77
2021/04/30 08:18:10;;;;;;;51.45;37.72;;;;;;;13.57;100.00;101184.59;5094306;28;20112;-77
2021/04/30 08:20:36;;;;;;;49.35;36.65;;;;;;;13.95;100.00;101189.91;5094517;28;20114;-77
2021/04/30 08:23:04;;;;;;;47.35;35.70;;;;;;;13.76;100.00;101190.84;5094443;28;20052;-78
2021/04/30 08:25:30;;;;;;;46.90;38.05;;;;;;;13.53;100.00;101183.41;5094297;28;20051;-77
2021/04/30 08:27:57;;;;;;;45.65;36.60;;;;;;;13.94;100.00;101184.78;5094361;28;20047;-78
2021/04/30 08:30:24;;;;;;;47.03;35.42;;;;;;;13.93;100.00;101178.63;5094353;28;20083;-76
2021/04/30 08:32:50;;;;;;;49.40;39.45;;;;;;;14.10;100.00;101167.38;5094311;28;20408;-77
2021/04/30 08:35:17;;;;;;;54.97;38.45;;;;;;;13.97;100.00;101153.09;5093890;28;20055;-79
2021/04/30 08:37:43;;;;;;;47.53;36.58;;;;;;;14.01;100.00;101166.88;5094093;28;20449;-78
2021/04/30 08:40:10;;;;;;;54.95;38.63;;;;;;;14.07;100.00;101166.00;5094138;28;20136;-78
2021/04/30 08:42:38;;;;;;;48.08;38.08;;;;;;;14.70;100.00;101177.56;5093645;28;20063;-77
2021/04/30 08:45:07;;;;;;;52.75;39.78;;;;;;;14.70;100.00;101182.91;5094121;28;20052;-77
2021/04/30 08:47:35;;;;;;;48.33;38.08;;;;;;;15.10;100.00;101168.06;5094156;28;20063;-77
2021/04/30 08:50:03;;;;;;;46.10;38.15;;;;;;;14.97;100.00;101173.53;5093999;28;20044;-78
2021/04/30 08:52:29;;;;;;;52.40;39.78;;;;;;;15.28;100.00;101163.69;5093617;28;20040;-79
2021/04/30 08:54:57;;;;;;;47.78;39.08;;;;;;;14.86;100.00;101168.97;5093501;28;20121;-77
2021/04/30 08:57:24;;;;;;;48.45;39.97;;;;;;;15.11;100.00;101158.16;5093801;28;20045;-78
2021/04/30 08:59:56;;;;;;;44.85;38.28;;;;;;;15.35;100.00;101153.72;5093493;28;20488;-78
2021/04/30 09:02:24;;;;;;;48.33;39.30;;;;;;;15.42;100.00;101151.78;5093696;28;20078;-78
2021/04/30 09:04:52;;;;;;;45.63;38.38;;;;;;;15.82;100.00;101158.44;5093500;28;20048;-78
2021/04/30 09:07:20;;;;;;;44.45;39.65;;;;;;;15.67;100.00;101161.50;5093507;28;20070;-78
2021/04/30 09:10:04;;;;;;;47.65;39.50;;;;;;;15.97;100.00;101161.50;5093464;28;20135;-78
2021/04/30 09:12:30;;;;;;;43.95;39.05;;;;;;;15.36;100.00;101150.00;5093260;28;20063;-78
2021/04/30 09:14:57;;;;;;;48.25;40.00;;;;;;;15.65;100.00;101163.63;5093568;28;20056;-78
2021/04/30 09:17:24;;;;;;;43.58;38.95;;;;;;;15.64;100.00;101157.41;5093668;28;20085;-79
2021/04/30 09:19:55;;;;;;;45.25;39.28;;;;;;;15.93;100.00;101147.75;5093580;28;20063;-78
2021/04/30 09:22:24;;;;;;;44.40;38.05;;;;;;;15.82;100.00;101151.22;5093678;28;20047;-78
2021/04/30 09:24:52;;;;;;;43.78;39.20;;;;;;;16.24;100.00;101145.78;5093574;28;20051;-78
2021/04/30 09:27:29;;;;;;;47.75;38.38;;;;;;;16.30;100.00;101150.22;5093626;28;20048;-78
2021/04/30 09:30:17;;;;;;;46.17;39.70;;;;;;;15.99;100.00;101146.81;5093253;28;20483;-79
2021/04/30 09:33:02;;;;;;;42.08;37.40;;;;;;;16.49;100.00;101138.34;5093293;28;20116;-79
2021/04/30 09:35:30;;;;;;;43.17;37.55;;;;;;;16.69;100.00;101142.50;5093222;28;20048;-79
2021/04/30 09:37:57;;;;;;;48.47;39.60;;;;;;;17.26;100.00;101142.59;5093429;28;20048;-78
2021/04/30 09:40:26;;;;;;;47.33;41.25;;;;;;;16.59;100.00;101145.78;5093285;28;20412;-78
2021/04/30 09:43:02;;;;;;;46.83;41.75;;;;;;;16.98;100.00;101132.66;5093087;28;20055;-79
2021/04/30 09:45:29;;;;;;;47.63;42.45;;;;;;;16.89;100.00;101136.78;5093394;28;20044;-78
2021/04/30 09:47:58;;;;;;;47.25;40.38;;;;;;;16.69;100.00;101132.56;5093200;28;20055;-78
2021/04/30 09:50:26;;;;;;;42.58;37.85;;;;;;;16.85;100.00;101119.50;5093488;28;20067;-78
2021/04/30 09:52:55;;;;;;;42.42;37.90;;;;;;;15.60;100.00;101126.81;5093140;28;20083;-79
2021/04/30 09:55:21;;;;;;;44.67;38.15;;;;;;;17.04;100.00;101112.13;5095509;28;20105;-79
2021/04/30 09:57:49;;;;;;;44.55;39.67;;;;;;;17.05;100.00;101109.19;5096770;28;20048;-78
2021/04/30 10:00:16;;;;;;;43.60;39.08;;;;;;;17.57;100.00;101116.28;5097165;28;20098;-79
2021/04/30 10:02:44;;;;;;;40.78;36.63;;;;;;;18.16;100.00;101114.03;5096721;28;20044;-78
2021/04/30 10:05:13;;;;;;;43.70;38.85;;;;;;;17.15;100.00;101104.00;5096704;28;20461;-79
2021/04/30 10:07:41;;;;;;;42.65;38.08;;;;;;;17.73;100.00;101091.31;5096946;28;20040;-79
2021/04/30 10:10:12;;;;;;;42.53;37.97;;;;;;;17.69;100.00;101084.78;5097007;28;20040;-79
2021/04/30 10:12:40;;;;;;;42.35;37.90;;;;;;;18.42;100.00;101087.50;5096676;28;20063;-79
2021/04/30 10:15:07;;;;;;;42.35;37.95;;;;;;;17.94;100.00;101092.47;5096524;28;20055;-78
2021/04/30 10:17:34;;;;;;;40.60;36.38;;;;;;;18.28;100.00;101095.13;5096332;28;20051;-79
2021/04/30 10:20:00;;;;;;;42.65;38.28;;;;;;;17.72;100.00;101086.19;5096808;28;20396;-78
2021/04/30 10:22:28;;;;;;;42.95;38.60;;;;;;;18.23;100.00;101086.97;5096563;28;20056;-78
2021/04/30 10:24:56;;;;;;;42.97;38.70;;;;;;;18.76;100.00;101086.34;5096392;28;20039;-79
2021/04/30 10:27:27;;;;;;;41.22;37.35;;;;;;;18.18;100.00;101078.84;5096573;28;20080;-78
2021/04/30 10:30:11;;;;;;;41.40;37.42;;;;;;;18.85;100.00;101067.88;5096235;28;20066;-79
2021/04/30 10:32:41;;;;;;;44.53;39.92;;;;;;;18.46;100.00;101059.06;5096365;28;20048;-79
2021/04/30 10:35:10;;;;;;;41.30;37.22;;;;;;;19.30;100.00;101063.19;5096608;28;20047;-79
2021/04/30 10:37:40;;;;;;;41.97;37.97;;;;;;;20.14;100.00;101065.19;5095996;28;20093;-79
2021/04/30 10:40:07;;;;;;;44.30;40.00;;;;;;;18.79;100.00;101068.06;5096365;28;20059;-80
2021/04/30 10:42:43;;;;;;;42.85;38.67;;;;;;;18.64;100.00;101071.34;5096323;28;20043;-79
2021/04/30 10:45:12;;;;;;;41.22;37.00;;;;;;;19.17;100.00;101065.25;5096351;28;20154;-78
2021/04/30 10:47:39;;;;;;;47.33;43.00;;;;;;;19.56;100.00;101062.34;5095790;28;20048;-79
2021/04/30 10:50:15;;;;;;;41.85;38.10;;;;;;;18.54;100.00;101067.47;5096261;28;20043;-79
2021/04/30 10:52:43;;;;;;;47.92;43.67;;;;;;;19.26;100.00;101056.72;5095734;28;20468;-78
2021/04/30 10:55:16;;;;;;;45.28;40.60;;;;;;;18.50;100.00;101060.16;5095668;28;20113;-78
2021/04/30 10:57:55;;;;;;;42.80;38.50;;;;;;;19.61;100.00;101057.00;5095681;28;20087;-78
2021/04/30 11:00:26;;;;;;;42.90;39.03;;;;;;;20.47;100.00;101044.31;5095746;28;20548;-78
2021/04/30 11:03:16;;;;;;;42.93;38.93;;;;;;;19.00;100.00;101048.38;5095594;28;20120;-78
2021/04/30 11:06:00;;;;;;;41.55;37.85;;;;;;;20.35;100.00;101037.25;5095338;28;20151;-78
2021/04/30 11:08:52;;;;;;;40.40;36.70;;;;;;;20.62;100.00;101044.41;5095759;28;20181;-78